Time;durP1;ratioP1;P1;durP2;ratioP2;P2;SDS_P1;SDS_P2;PMS_P1;PMS_P2;Temp;Humidity;BMP_temperature;BMP_pressure;BME280_temperature;BME280_humidity;BME280_pressure;Samples;Min_cycle;Max_cycle;Signal;HPM_P1;HPM_P2
2022/11/20 00:01:11;;;;;;;9.82;8.93;;;;;;;;;;4967511;28;20041;-68
2022/11/20 00:03:37;;;;;;;9.00;8.30;;;;;;;;;;4963056;28;20174;-68
2022/11/20 00:06:05;;;;;;;9.70;8.73;;;;;;;;;;4967665;28;20142;-68
2022/11/20 00:08:31;;;;;;;10.40;9.50;;;;;;;;;;4970129;28;20042;-68
2022/11/20 00:10:56;;;;;;;9.82;9.02;;;;;;;;;;4963513;28;20041;-68
2022/11/20 00:13:22;;;;;;;9.73;8.70;;;;;;;;;;4969086;28;20034;-68
2022/11/20 00:15:48;;;;;;;9.05;8.35;;;;;;;;;;4966142;28;20035;-68
2022/11/20 00:18:14;;;;;;;9.93;8.93;;;;;;;;;;4964703;28;20050;-68
2022/11/20 00:20:39;;;;;;;9.35;8.40;;;;;;;;;;4962840;28;20046;-68
2022/11/20 00:23:06;;;;;;;9.90;7.97;;;;;;;;;;4972112;28;21363;-69
2022/11/20 00:25:35;;;;;;;8.60;7.90;;;;;;;;;;4966202;28;20177;-68
2022/11/20 00:28:00;;;;;;;8.40;7.70;;;;;;;;;;4963155;28;20042;-68
2022/11/20 00:30:26;;;;;;;8.73;8.13;;;;;;;;;;4967351;28;20047;-68
2022/11/20 00:32:51;;;;;;;10.85;8.90;;;;;;;;;;4965264;28;20038;-68
2022/11/20 00:35:17;;;;;;;9.00;8.25;;;;;;;;;;4963934;28;20149;-68
2022/11/20 00:37:43;;;;;;;8.43;7.35;;;;;;;;;;4960555;28;20620;-68
2022/11/20 00:40:09;;;;;;;8.90;8.30;;;;;;;;;;4969762;28;20497;-69
2022/11/20 00:42:34;;;;;;;8.52;7.78;;;;;;;;;;4965741;28;20031;-68
2022/11/20 00:45:00;;;;;;;8.32;7.63;;;;;;;;;;4966282;28;20177;-68
2022/11/20 00:47:25;;;;;;;7.50;6.90;;;;;;;;;;4963705;28;20075;-69
2022/11/20 00:49:51;;;;;;;9.40;8.50;;;;;;;;;;4971261;28;20475;-68
2022/11/20 00:52:17;;;;;;;8.60;7.75;;;;;;;;;;4979271;28;20061;-69
2022/11/20 00:54:42;;;;;;;9.70;8.70;;;;;;;;;;4970754;28;20039;-68
2022/11/20 00:57:08;;;;;;;9.30;8.40;;;;;;;;;;4972639;28;20401;-68
2022/11/20 00:59:33;;;;;;;9.57;8.70;;;;;;;;;;4979362;28;20061;-68
2022/11/20 01:01:59;;;;;;;9.45;8.60;;;;;;;;;;4970598;28;20102;-68
2022/11/20 01:04:24;;;;;;;8.07;7.35;;;;;;;;;;4968021;28;20035;-68
2022/11/20 01:06:50;;;;;;;13.15;8.13;;;;;;;;;;4970523;28;20058;-68
2022/11/20 01:09:15;;;;;;;8.90;8.00;;;;;;;;;;4976353;28;20062;-68
2022/11/20 01:11:43;;;;;;;7.55;7.05;;;;;;;;;;4970214;28;20053;-68
2022/11/20 01:14:17;;;;;;;8.05;7.35;;;;;;;;;;4970218;28;20030;-68
2022/11/20 01:16:46;;;;;;;8.68;8.00;;;;;;;;;;4976309;28;20038;-68
2022/11/20 01:19:14;;;;;;;7.47;6.88;;;;;;;;;;4965974;28;20038;-69
2022/11/20 01:21:42;;;;;;;8.98;8.18;;;;;;;;;;4967832;28;20039;-68
2022/11/20 01:24:12;;;;;;;9.57;8.20;;;;;;;;;;4979467;28;20038;-68
2022/11/20 01:26:39;;;;;;;8.10;7.50;;;;;;;;;;4975819;28;20069;-68
2022/11/20 01:29:06;;;;;;;9.07;8.27;;;;;;;;;;4967607;28;20396;-68
2022/11/20 01:31:35;;;;;;;8.35;7.70;;;;;;;;;;4970562;28;20081;-68
2022/11/20 01:34:07;;;;;;;8.68;8.05;;;;;;;;;;4975886;28;20541;-68
2022/11/20 01:36:35;;;;;;;7.53;7.00;;;;;;;;;;4965684;28;20032;-68
2022/11/20 01:39:04;;;;;;;8.18;7.40;;;;;;;;;;4974775;28;20041;-68
2022/11/20 01:44:18;;;;;;;8.40;7.80;;;;;;;;;;4973628;28;20053;-68
2022/11/20 01:47:04;;;;;;;8.02;7.43;;;;;;;;;;4972992;28;20073;-68
2022/11/20 01:49:42;;;;;;;7.80;7.28;;;;;;;;;;4967733;28;20143;-68
2022/11/20 01:52:18;;;;;;;8.13;7.43;;;;;;;;;;4967684;28;20038;-68
2022/11/20 01:54:49;;;;;;;7.68;7.18;;;;;;;;;;4965920;28;20050;-68
2022/11/20 01:57:16;;;;;;;7.38;6.88;;;;;;;;;;4978150;28;20030;-68
2022/11/20 01:59:47;;;;;;;8.40;7.70;;;;;;;;;;4966875;28;20035;-68
2022/11/20 02:02:17;;;;;;;7.75;7.18;;;;;;;;;;4967657;28;20027;-68
2022/11/20 02:04:44;;;;;;;8.40;7.65;;;;;;;;;;4971212;28;20030;-68
2022/11/20 02:07:10;;;;;;;8.18;7.57;;;;;;;;;;4970528;28;20031;-68
2022/11/20 02:09:36;;;;;;;8.20;7.60;;;;;;;;;;4963609;28;20591;-68
2022/11/20 02:12:02;;;;;;;8.18;7.50;;;;;;;;;;4976235;28;20117;-69
2022/11/20 02:14:29;;;;;;;8.93;8.02;;;;;;;;;;4976475;28;20035;-68
2022/11/20 02:16:55;;;;;;;8.50;7.80;;;;;;;;;;4969657;28;20478;-68
2022/11/20 02:19:28;;;;;;;8.00;7.40;;;;;;;;;;4954126;28;20030;-68
2022/11/20 02:22:10;;;;;;;8.35;7.60;;;;;;;;;;4958417;28;20347;-68
2022/11/20 02:24:36;;;;;;;8.15;7.45;;;;;;;;;;4960534;28;20050;-68
2022/11/20 02:27:06;;;;;;;8.38;7.78;;;;;;;;;;4956671;28;20039;-68
2022/11/20 02:29:37;;;;;;;8.77;8.10;;;;;;;;;;4954586;28;20546;-68
2022/11/20 02:32:03;;;;;;;8.68;7.97;;;;;;;;;;4960118;28;20043;-68
2022/11/20 02:34:29;;;;;;;8.77;8.07;;;;;;;;;;4955601;28;20054;-68
2022/11/20 02:36:57;;;;;;;8.80;8.10;;;;;;;;;;4955765;28;20073;-68
2022/11/20 02:39:24;;;;;;;8.63;7.93;;;;;;;;;;4959829;28;20030;-68
2022/11/20 02:41:53;;;;;;;9.10;8.32;;;;;;;;;;4959418;28;20445;-68
2022/11/20 02:44:18;;;;;;;9.30;8.38;;;;;;;;;;4956324;28;20043;-68
2022/11/20 02:46:44;;;;;;;8.80;8.10;;;;;;;;;;4955751;28;20558;-68
2022/11/20 02:49:10;;;;;;;9.10;8.20;;;;;;;;;;4960290;28;20034;-68
2022/11/20 02:51:35;;;;;;;9.32;8.57;;;;;;;;;;4958137;28;20138;-67
2022/11/20 02:54:01;;;;;;;9.48;8.55;;;;;;;;;;4957492;28;20069;-68
2022/11/20 02:56:26;;;;;;;8.48;7.88;;;;;;;;;;4957346;28;20467;-69
2022/11/20 02:58:52;;;;;;;9.88;8.60;;;;;;;;;;4960611;28;20271;-68
2022/11/20 03:01:18;;;;;;;9.02;8.15;;;;;;;;;;4958902;28;20057;-68
2022/11/20 03:03:43;;;;;;;8.82;8.07;;;;;;;;;;4955569;28;20062;-68
2022/11/20 03:06:09;;;;;;;9.43;8.60;;;;;;;;;;4964160;28;20069;-68
2022/11/20 03:08:35;;;;;;;8.13;7.50;;;;;;;;;;4962212;28;20041;-68
2022/11/20 03:11:07;;;;;;;9.00;8.30;;;;;;;;;;4958911;28;20043;-68
2022/11/20 03:13:33;;;;;;;8.23;7.63;;;;;;;;;;4960197;28;20035;-68
2022/11/20 03:16:06;;;;;;;9.02;8.20;;;;;;;;;;4968590;28;20486;-68
2022/11/20 03:18:32;;;;;;;8.45;7.82;;;;;;;;;;4971178;28;20074;-68
2022/11/20 03:20:58;;;;;;;9.60;8.80;;;;;;;;;;4970944;28;20038;-68
2022/11/20 03:23:24;;;;;;;9.10;8.30;;;;;;;;;;4969363;28;20057;-68
2022/11/20 03:25:50;;;;;;;8.25;7.55;;;;;;;;;;4978111;28;20039;-68
2022/11/20 03:28:16;;;;;;;9.30;8.50;;;;;;;;;;4969783;28;20063;-68
2022/11/20 03:30:41;;;;;;;8.65;7.85;;;;;;;;;;4965559;28;20043;-68
2022/11/20 03:33:07;;;;;;;8.70;7.95;;;;;;;;;;4966635;28;20038;-68
2022/11/20 03:35:32;;;;;;;8.38;7.75;;;;;;;;;;4983026;28;20401;-68
2022/11/20 03:37:58;;;;;;;8.63;8.00;;;;;;;;;;4966989;28;20034;-68
2022/11/20 03:40:23;;;;;;;8.82;8.02;;;;;;;;;;4962209;28;20054;-68
2022/11/20 03:42:49;;;;;;;9.23;8.27;;;;;;;;;;4968821;28;20537;-68
2022/11/20 03:45:16;;;;;;;9.32;8.57;;;;;;;;;;4968602;28;20623;-69
2022/11/20 03:47:43;;;;;;;8.85;8.05;;;;;;;;;;4969323;28;20046;-68
2022/11/20 03:50:10;;;;;;;7.95;7.35;;;;;;;;;;4966276;28;20232;-68
2022/11/20 03:52:35;;;;;;;8.23;7.63;;;;;;;;;;4960669;28;20097;-68
2022/11/20 03:55:01;;;;;;;8.48;7.78;;;;;;;;;;4970924;28;20038;-68
2022/11/20 03:57:27;;;;;;;8.25;7.70;;;;;;;;;;4967160;28;20086;-68
2022/11/20 03:59:52;;;;;;;8.45;7.65;;;;;;;;;;4959865;28;20482;-68
2022/11/20 04:02:18;;;;;;;8.25;7.65;;;;;;;;;;4961776;28;20611;-68
2022/11/20 04:04:43;;;;;;;8.38;7.60;;;;;;;;;;4966379;28;20110;-68
2022/11/20 04:07:09;;;;;;;8.15;7.60;;;;;;;;;;4961940;28;20041;-68
2022/11/20 04:09:34;;;;;;;8.45;7.75;;;;;;;;;;4960806;28;20454;-68
2022/11/20 04:12:00;;;;;;;8.57;7.97;;;;;;;;;;4967580;28;20545;-68
2022/11/20 04:14:26;;;;;;;8.82;7.93;;;;;;;;;;4971766;28;20062;-67
2022/11/20 04:16:51;;;;;;;8.20;7.43;;;;;;;;;;4965904;28;20071;-68
2022/11/20 04:19:17;;;;;;;7.30;6.80;;;;;;;;;;4961184;28;20042;-68
2022/11/20 04:21:43;;;;;;;7.80;7.30;;;;;;;;;;4961826;28;20646;-68
2022/11/20 04:24:10;;;;;;;7.78;7.10;;;;;;;;;;4975502;28;20044;-68
2022/11/20 04:26:36;;;;;;;8.23;7.63;;;;;;;;;;4963116;28;20387;-68
2022/11/20 04:29:02;;;;;;;6.97;6.57;;;;;;;;;;4964431;28;20038;-68
2022/11/20 04:31:30;;;;;;;7.88;7.28;;;;;;;;;;4966783;28;20030;-68
2022/11/20 04:33:59;;;;;;;7.05;6.53;;;;;;;;;;4972913;28;20210;-68
2022/11/20 04:36:27;;;;;;;7.82;7.22;;;;;;;;;;4960656;28;20049;-68
2022/11/20 04:38:54;;;;;;;8.52;7.47;;;;;;;;;;4968168;28;20427;-68
2022/11/20 04:41:20;;;;;;;8.40;7.05;;;;;;;;;;4984177;28;20034;-68
2022/11/20 04:43:51;;;;;;;9.13;7.25;;;;;;;;;;4972287;28;20055;-68
2022/11/20 04:46:20;;;;;;;7.55;7.03;;;;;;;;;;4966759;28;20093;-68
2022/11/20 04:48:47;;;;;;;7.85;7.15;;;;;;;;;;4967955;28;20035;-68
2022/11/20 04:51:12;;;;;;;7.43;6.93;;;;;;;;;;4963182;28;20085;-68
2022/11/20 04:53:38;;;;;;;7.28;6.82;;;;;;;;;;4978145;28;20633;-69
2022/11/20 04:56:07;;;;;;;8.30;7.60;;;;;;;;;;4962151;28;20034;-68
2022/11/20 04:58:33;;;;;;;7.80;7.20;;;;;;;;;;4970029;28;20085;-69
2022/11/20 05:01:04;;;;;;;7.55;6.85;;;;;;;;;;4975415;28;20031;-68
2022/11/20 05:03:29;;;;;;;7.38;6.88;;;;;;;;;;4958786;28;20031;-68
2022/11/20 05:05:55;;;;;;;8.32;6.88;;;;;;;;;;4958916;28;20045;-69
2022/11/20 05:08:20;;;;;;;6.57;6.13;;;;;;;;;;4967454;28;20268;-68
2022/11/20 05:10:46;;;;;;;6.38;5.97;;;;;;;;;;4971734;28;20077;-68
2022/11/20 05:13:11;;;;;;;7.40;6.78;;;;;;;;;;4970464;28;20035;-68
2022/11/20 05:15:37;;;;;;;7.55;6.95;;;;;;;;;;4968488;28;20494;-68
2022/11/20 05:18:03;;;;;;;6.90;6.43;;;;;;;;;;4968681;28;20521;-68
2022/11/20 05:20:28;;;;;;;7.03;6.53;;;;;;;;;;4959830;28;20434;-69
2022/11/20 05:22:57;;;;;;;7.30;6.72;;;;;;;;;;4973634;28;20109;-68
2022/11/20 05:25:22;;;;;;;6.93;6.43;;;;;;;;;;4969387;28;20049;-69
2022/11/20 05:27:48;;;;;;;7.22;6.72;;;;;;;;;;4967801;28;20305;-68
2022/11/20 05:30:14;;;;;;;7.60;6.80;;;;;;;;;;4962858;28;20061;-68
2022/11/20 05:32:39;;;;;;;8.18;6.68;;;;;;;;;;4967144;28;20034;-68
2022/11/20 05:35:05;;;;;;;7.10;6.60;;;;;;;;;;4966979;28;20279;-68
2022/11/20 05:37:31;;;;;;;7.32;6.75;;;;;;;;;;4957844;28;20043;-68
2022/11/20 05:39:56;;;;;;;6.57;5.97;;;;;;;;;;4963295;28;20034;-69
2022/11/20 05:42:31;;;;;;;7.18;6.35;;;;;;;;;;4964206;28;20454;-68
2022/11/20 05:44:58;;;;;;;7.80;7.20;;;;;;;;;;4980748;28;20043;-68
2022/11/20 05:47:23;;;;;;;8.15;7.32;;;;;;;;;;4976261;28;20026;-69
2022/11/20 05:49:49;;;;;;;7.45;6.80;;;;;;;;;;4972463;28;20039;-69
2022/11/20 05:52:14;;;;;;;6.90;6.40;;;;;;;;;;4967525;28;20031;-69
2022/11/20 05:54:40;;;;;;;6.80;6.30;;;;;;;;;;4976796;28;20401;-68
2022/11/20 05:57:05;;;;;;;7.35;6.65;;;;;;;;;;4971977;28;20034;-69
2022/11/20 05:59:31;;;;;;;7.35;6.80;;;;;;;;;;4962190;28;20455;-68
2022/11/20 06:01:57;;;;;;;7.38;6.70;;;;;;;;;;4965924;28;20062;-68
2022/11/20 06:04:22;;;;;;;7.05;6.45;;;;;;;;;;4963772;28;20498;-68
2022/11/20 06:06:48;;;;;;;6.80;6.30;;;;;;;;;;4961630;28;20046;-68
2022/11/20 06:09:13;;;;;;;7.47;6.97;;;;;;;;;;4963836;28;20034;-68
2022/11/20 06:11:39;;;;;;;7.13;6.63;;;;;;;;;;4963073;28;20049;-68
2022/11/20 06:14:05;;;;;;;7.10;6.60;;;;;;;;;;4958646;28;20121;-68
2022/11/20 06:16:31;;;;;;;7.57;6.82;;;;;;;;;;4963206;28;20431;-69
2022/11/20 06:18:56;;;;;;;6.95;6.53;;;;;;;;;;4957672;28;20955;-69
2022/11/20 06:21:22;;;;;;;7.78;7.07;;;;;;;;;;4965254;28;20491;-69
2022/11/20 06:23:49;;;;;;;7.07;6.57;;;;;;;;;;4963022;28;20068;-70
2022/11/20 06:26:23;;;;;;;7.43;6.72;;;;;;;;;;4966582;28;20479;-70
2022/11/20 06:28:49;;;;;;;6.82;6.32;;;;;;;;;;4969015;28;20031;-71
2022/11/20 06:31:18;;;;;;;7.88;7.28;;;;;;;;;;4967419;28;20890;-70
2022/11/20 06:33:44;;;;;;;7.53;7.03;;;;;;;;;;4962449;28;20035;-70
2022/11/20 06:36:12;;;;;;;7.75;7.03;;;;;;;;;;4958995;28;20035;-70
2022/11/20 06:38:38;;;;;;;7.45;6.95;;;;;;;;;;4964714;28;20043;-70
2022/11/20 06:41:10;;;;;;;8.32;7.47;;;;;;;;;;4964244;28;20042;-71
2022/11/20 06:43:36;;;;;;;8.40;7.60;;;;;;;;;;4959853;28;20042;-71
2022/11/20 06:46:02;;;;;;;7.35;6.85;;;;;;;;;;4954800;28;20043;-70
2022/11/20 06:48:28;;;;;;;7.18;6.68;;;;;;;;;;4961017;28;20537;-70
2022/11/20 06:50:53;;;;;;;8.13;7.55;;;;;;;;;;4962775;28;20038;-71
2022/11/20 06:53:19;;;;;;;7.68;7.00;;;;;;;;;;4964214;28;20069;-71
2022/11/20 06:55:46;;;;;;;7.50;7.00;;;;;;;;;;4954036;28;20074;-71
2022/11/20 06:58:13;;;;;;;7.60;6.90;;;;;;;;;;4963879;28;20034;-71
2022/11/20 07:00:39;;;;;;;8.05;7.38;;;;;;;;;;4962729;28;20039;-70
2022/11/20 07:03:05;;;;;;;7.60;6.95;;;;;;;;;;4961834;28;20046;-71
2022/11/20 07:05:31;;;;;;;8.05;7.40;;;;;;;;;;4957739;28;20104;-71
2022/11/20 07:07:57;;;;;;;8.18;7.10;;;;;;;;;;4970210;28;20462;-70
2022/11/20 07:10:23;;;;;;;7.93;7.22;;;;;;;;;;4966244;28;20061;-70
2022/11/20 07:12:50;;;;;;;7.65;7.05;;;;;;;;;;4962611;28;20026;-70
2022/11/20 07:15:17;;;;;;;8.30;7.50;;;;;;;;;;4967470;28;20121;-70
2022/11/20 07:17:42;;;;;;;8.80;8.10;;;;;;;;;;4962895;28;20045;-71
2022/11/20 07:20:08;;;;;;;9.50;7.00;;;;;;;;;;4961727;28;20125;-71
2022/11/20 07:22:34;;;;;;;7.22;6.72;;;;;;;;;;4958808;28;20418;-71
2022/11/20 07:24:59;;;;;;;9.27;7.20;;;;;;;;;;4970940;28;20046;-70
2022/11/20 07:27:25;;;;;;;7.53;7.03;;;;;;;;;;4962803;28;20039;-70
2022/11/20 07:29:50;;;;;;;7.20;6.70;;;;;;;;;;4963508;28;20534;-70
2022/11/20 07:32:16;;;;;;;7.25;6.75;;;;;;;;;;4963355;28;20035;-71
2022/11/20 07:34:42;;;;;;;7.53;6.93;;;;;;;;;;4959689;28;20130;-70
2022/11/20 07:37:07;;;;;;;7.10;6.60;;;;;;;;;;4962182;28;20485;-70
2022/11/20 07:39:33;;;;;;;7.13;6.50;;;;;;;;;;4960436;28;20045;-71
2022/11/20 07:41:58;;;;;;;7.32;6.63;;;;;;;;;;4970359;28;20073;-71
2022/11/20 07:44:24;;;;;;;7.22;6.70;;;;;;;;;;4961774;28;20050;-71
2022/11/20 07:46:49;;;;;;;7.75;6.63;;;;;;;;;;4972468;28;20042;-70
2022/11/20 07:49:15;;;;;;;7.80;7.10;;;;;;;;;;4967314;28;20042;-71
2022/11/20 07:51:40;;;;;;;7.65;7.15;;;;;;;;;;4967744;28;20035;-71
2022/11/20 07:54:06;;;;;;;7.82;7.30;;;;;;;;;;4966714;28;20061;-71
2022/11/20 07:56:31;;;;;;;7.50;6.90;;;;;;;;;;4966289;28;20122;-71
2022/11/20 07:58:57;;;;;;;6.93;6.35;;;;;;;;;;4970226;28;20070;-71
2022/11/20 08:01:22;;;;;;;7.30;6.70;;;;;;;;;;4964562;28;20081;-71
2022/11/20 08:03:48;;;;;;;7.88;7.18;;;;;;;;;;4969030;28;20035;-71
2022/11/20 08:06:14;;;;;;;7.00;6.55;;;;;;;;;;4963332;28;20069;-71
2022/11/20 08:08:40;;;;;;;7.63;6.97;;;;;;;;;;4959069;28;20101;-71
2022/11/20 08:16:35;;;;;;;7.07;6.57;;;;;;;;;;4960607;28;20207;-71
2022/11/20 08:19:00;;;;;;;7.00;6.40;;;;;;;;;;4969456;28;20037;-71
2022/11/20 08:21:26;;;;;;;6.85;6.25;;;;;;;;;;4970710;28;20097;-71
2022/11/20 08:23:52;;;;;;;7.20;6.70;;;;;;;;;;4970691;28;20062;-71
2022/11/20 08:26:17;;;;;;;6.70;6.25;;;;;;;;;;4965791;28;20509;-71
2022/11/20 08:28:43;;;;;;;7.05;6.53;;;;;;;;;;4964590;28;20062;-71
2022/11/20 08:31:09;;;;;;;6.95;6.53;;;;;;;;;;4967704;28;20046;-71
2022/11/20 08:33:35;;;;;;;7.22;6.72;;;;;;;;;;4961970;28;20042;-71
2022/11/20 08:36:02;;;;;;;7.03;6.53;;;;;;;;;;4959700;28;20042;-71
2022/11/20 08:38:28;;;;;;;7.28;6.78;;;;;;;;;;4959846;28;20113;-71
2022/11/20 08:43:44;;;;;;;8.50;7.72;;;;;;;;;;4953879;28;20039;-71
2022/11/20 08:46:10;;;;;;;6.40;5.93;;;;;;;;;;4964121;28;20085;-71
2022/11/20 08:48:36;;;;;;;6.75;6.35;;;;;;;;;;4966744;28;20649;-70
2022/11/20 08:51:02;;;;;;;7.15;6.60;;;;;;;;;;4963056;28;20690;-71
2022/11/20 08:53:27;;;;;;;6.90;6.40;;;;;;;;;;4975758;28;20030;-71
2022/11/20 08:55:53;;;;;;;6.57;6.07;;;;;;;;;;4979124;28;20055;-71
2022/11/20 08:58:18;;;;;;;6.10;5.70;;;;;;;;;;4968794;28;20041;-70
2022/11/20 09:00:45;;;;;;;6.20;5.80;;;;;;;;;;4972837;28;20070;-70
2022/11/20 09:03:10;;;;;;;6.60;6.10;;;;;;;;;;4957948;28;20027;-72
2022/11/20 09:05:36;;;;;;;6.35;5.85;;;;;;;;;;4959028;28;20043;-72
2022/11/20 09:08:02;;;;;;;6.53;6.05;;;;;;;;;;4955173;28;20046;-72
2022/11/20 09:10:27;;;;;;;6.82;6.32;;;;;;;;;;4966332;28;20064;-73
2022/11/20 09:12:54;;;;;;;6.22;5.82;;;;;;;;;;4963831;28;20093;-73
2022/11/20 09:15:21;;;;;;;6.38;5.88;;;;;;;;;;4975688;28;20142;-73
2022/11/20 09:17:58;;;;;;;6.40;6.00;;;;;;;;;;4971052;28;20041;-73
2022/11/20 09:20:24;;;;;;;6.60;6.15;;;;;;;;;;4974457;28;20039;-73
2022/11/20 09:22:50;;;;;;;6.53;6.13;;;;;;;;;;4982581;28;20085;-73
2022/11/20 09:25:16;;;;;;;6.28;5.85;;;;;;;;;;4971819;28;20038;-73
2022/11/20 09:27:43;;;;;;;6.70;6.30;;;;;;;;;;4972861;28;20041;-73
2022/11/20 09:30:10;;;;;;;6.30;5.78;;;;;;;;;;4975644;28;20550;-73
2022/11/20 09:32:35;;;;;;;6.22;5.82;;;;;;;;;;4977813;28;20039;-73
2022/11/20 09:35:01;;;;;;;6.53;6.13;;;;;;;;;;4964313;28;20359;-73
2022/11/20 09:37:27;;;;;;;6.40;5.90;;;;;;;;;;4963530;28;20089;-73
2022/11/20 09:39:53;;;;;;;5.47;5.18;;;;;;;;;;4968728;28;20398;-73
2022/11/20 09:42:32;;;;;;;5.63;5.32;;;;;;;;;;4959485;28;20071;-73
2022/11/20 09:45:36;;;;;;;6.18;5.78;;;;;;;;;;4970241;28;20137;-73
2022/11/20 09:48:20;;;;;;;5.88;5.10;;;;;;;;;;4959234;28;20568;-73
2022/11/20 09:51:09;;;;;;;6.38;5.88;;;;;;;;;;4987325;28;20070;-73
2022/11/20 09:53:38;;;;;;;5.45;5.15;;;;;;;;;;4967053;28;20418;-72
2022/11/20 09:56:04;;;;;;;6.57;6.07;;;;;;;;;;4973529;28;20038;-73
2022/11/20 09:58:35;;;;;;;6.22;5.82;;;;;;;;;;4970613;28;20137;-73
2022/11/20 10:01:16;;;;;;;6.40;6.00;;;;;;;;;;4975891;28;20041;-73
2022/11/20 10:04:17;;;;;;;5.93;5.53;;;;;;;;;;4960646;28;20043;-73
2022/11/20 10:06:56;;;;;;;6.40;6.00;;;;;;;;;;4928478;29;20444;-73
2022/11/20 10:09:39;;;;;;;6.30;5.70;;;;;;;;;;4917865;29;20156;-73
2022/11/20 10:12:45;;;;;;;6.45;5.95;;;;;;;;;;4923794;29;20066;-73
2022/11/20 10:15:19;;;;;;;6.10;5.70;;;;;;;;;;4927734;29;20497;-73
2022/11/20 10:17:45;;;;;;;5.75;5.45;;;;;;;;;;4930376;29;20459;-74
2022/11/20 10:20:35;;;;;;;6.13;5.72;;;;;;;;;;4930219;29;20301;-73
2022/11/20 10:23:39;;;;;;;6.45;6.05;;;;;;;;;;4924725;29;20126;-72
2022/11/20 10:26:11;;;;;;;6.40;6.00;;;;;;;;;;4932483;29;20059;-72
2022/11/20 10:28:51;;;;;;;6.30;5.90;;;;;;;;;;4928635;29;20474;-72
2022/11/20 10:31:25;;;;;;;6.57;6.18;;;;;;;;;;4936204;29;20047;-72
2022/11/20 10:33:53;;;;;;;6.85;6.25;;;;;;;;;;4938132;29;20050;-72
2022/11/20 10:36:25;;;;;;;6.25;5.85;;;;;;;;;;4929360;29;20071;-73
2022/11/20 10:39:03;;;;;;;6.47;6.07;;;;;;;;;;4931802;29;20036;-73
2022/11/20 10:41:34;;;;;;;6.18;5.88;;;;;;;;;;4914845;29;20191;-73
2022/11/20 10:44:05;;;;;;;6.15;5.82;;;;;;;;;;4966769;28;20047;-73
2022/11/20 10:46:42;;;;;;;9.75;5.97;;;;;;;;;;4972715;28;20050;-72
2022/11/20 10:49:14;;;;;;;6.30;6.00;;;;;;;;;;4965164;28;20111;-72
2022/11/20 10:51:51;;;;;;;5.63;5.32;;;;;;;;;;4956053;28;20050;-72
2022/11/20 10:54:25;;;;;;;5.85;5.55;;;;;;;;;;4962145;28;20093;-72
2022/11/20 10:56:53;;;;;;;6.03;5.72;;;;;;;;;;4970120;28;20049;-71
2022/11/20 10:59:40;;;;;;;6.78;6.18;;;;;;;;;;4966566;28;20035;-72
2022/11/20 11:02:24;;;;;;;6.15;5.75;;;;;;;;;;4969670;28;20041;-72
2022/11/20 11:04:51;;;;;;;6.45;6.05;;;;;;;;;;4969707;28;20423;-73
2022/11/20 11:07:20;;;;;;;6.55;6.15;;;;;;;;;;4972194;28;20034;-73
2022/11/20 11:09:52;;;;;;;6.30;5.90;;;;;;;;;;4960470;28;20049;-72
2022/11/20 11:12:18;;;;;;;6.78;6.28;;;;;;;;;;4961394;28;20293;-72
2022/11/20 11:14:50;;;;;;;6.53;6.13;;;;;;;;;;4969933;28;20126;-72
2022/11/20 11:17:34;;;;;;;5.80;5.50;;;;;;;;;;4980698;28;20061;-72
2022/11/20 11:20:16;;;;;;;6.60;6.20;;;;;;;;;;4970416;28;20039;-72
2022/11/20 11:22:57;;;;;;;6.32;5.82;;;;;;;;;;4960445;28;20042;-72
2022/11/20 11:25:26;;;;;;;6.45;5.90;;;;;;;;;;4972058;28;20055;-72
2022/11/20 11:27:55;;;;;;;7.07;6.25;;;;;;;;;;4971247;28;20031;-71
2022/11/20 11:30:22;;;;;;;6.75;6.28;;;;;;;;;;4969285;28;20030;-72
2022/11/20 11:32:49;;;;;;;6.97;6.40;;;;;;;;;;4978574;28;20448;-71
2022/11/20 11:35:27;;;;;;;6.97;6.50;;;;;;;;;;4970811;28;20512;-72
2022/11/20 11:38:02;;;;;;;6.63;6.13;;;;;;;;;;4963209;28;20039;-72
2022/11/20 11:40:31;;;;;;;7.40;6.70;;;;;;;;;;4961730;28;20035;-72
2022/11/20 11:43:00;;;;;;;7.10;6.60;;;;;;;;;;4960429;28;20030;-72
2022/11/20 11:45:26;;;;;;;6.47;6.07;;;;;;;;;;4976062;28;20034;-72
2022/11/20 11:47:55;;;;;;;7.07;6.50;;;;;;;;;;4965614;28;20038;-72
2022/11/20 11:50:24;;;;;;;6.93;6.53;;;;;;;;;;4978755;28;20026;-72
2022/11/20 11:53:05;;;;;;;7.43;6.93;;;;;;;;;;4972321;28;20063;-72
2022/11/20 11:55:45;;;;;;;6.80;6.40;;;;;;;;;;4965899;28;20470;-72
2022/11/20 11:58:29;;;;;;;6.68;6.28;;;;;;;;;;4970473;28;20068;-72
2022/11/20 12:01:24;;;;;;;6.82;6.32;;;;;;;;;;4969764;28;20093;-72
2022/11/20 12:04:05;;;;;;;7.05;6.65;;;;;;;;;;4957489;28;20043;-72
2022/11/20 12:06:32;;;;;;;7.25;6.80;;;;;;;;;;4961975;28;20344;-71
2022/11/20 12:09:10;;;;;;;7.05;6.65;;;;;;;;;;4969980;28;20038;-72
2022/11/20 12:11:55;;;;;;;7.55;6.80;;;;;;;;;;4965814;28;20043;-72
2022/11/20 12:14:34;;;;;;;6.72;6.22;;;;;;;;;;4968793;28;20386;-72
2022/11/20 12:17:01;;;;;;;6.95;6.45;;;;;;;;;;4966798;28;20046;-72
2022/11/20 12:19:33;;;;;;;6.10;5.70;;;;;;;;;;4964559;28;20038;-72
2022/11/20 12:22:16;;;;;;;7.28;6.68;;;;;;;;;;4965424;28;20081;-72
2022/11/20 12:25:07;;;;;;;7.13;6.63;;;;;;;;;;4953206;28;20076;-72
2022/11/20 12:27:54;;;;;;;6.93;6.43;;;;;;;;;;4962780;28;20050;-72
2022/11/20 12:30:22;;;;;;;6.57;6.07;;;;;;;;;;4976803;28;20739;-73
2022/11/20 12:32:53;;;;;;;7.00;6.50;;;;;;;;;;4965366;28;20094;-73
2022/11/20 12:35:52;;;;;;;6.50;5.70;;;;;;;;;;4966684;28;20031;-72
2022/11/20 12:38:49;;;;;;;6.78;6.28;;;;;;;;;;4972414;28;20023;-72
2022/11/20 12:45:10;;;;;;;6.18;5.78;;;;;;;;;;4969220;28;20043;-72
2022/11/20 12:47:57;;;;;;;6.45;5.95;;;;;;;;;;4971177;28;20533;-72
2022/11/20 12:50:22;;;;;;;6.70;6.22;;;;;;;;;;4980442;28;20121;-72
2022/11/20 12:52:56;;;;;;;7.18;6.68;;;;;;;;;;4967070;28;20059;-72
2022/11/20 12:55:49;;;;;;;8.00;7.32;;;;;;;;;;4981889;28;20056;-72
2022/11/20 12:58:34;;;;;;;6.55;6.10;;;;;;;;;;4973421;28;20065;-73
2022/11/20 13:01:39;;;;;;;7.10;6.40;;;;;;;;;;4968062;28;20093;-72
2022/11/20 13:04:23;;;;;;;6.95;6.45;;;;;;;;;;4979368;28;20118;-72
2022/11/20 13:06:50;;;;;;;7.57;6.82;;;;;;;;;;4974060;28;20051;-73
2022/11/20 13:09:21;;;;;;;7.20;6.70;;;;;;;;;;4975043;28;20042;-72
2022/11/20 13:11:58;;;;;;;6.95;6.40;;;;;;;;;;4974635;28;20059;-73
2022/11/20 13:14:53;;;;;;;6.70;6.20;;;;;;;;;;4971498;28;20030;-73
2022/11/20 13:17:47;;;;;;;6.57;5.90;;;;;;;;;;4953507;28;20050;-73
2022/11/20 13:20:16;;;;;;;6.38;5.93;;;;;;;;;;4958034;28;20430;-73
2022/11/20 13:22:51;;;;;;;6.75;6.25;;;;;;;;;;4935633;29;20045;-73
2022/11/20 13:25:35;;;;;;;6.28;5.95;;;;;;;;;;4952736;28;20049;-73
2022/11/20 13:28:24;;;;;;;6.97;6.47;;;;;;;;;;4931590;28;20534;-73
2022/11/20 13:30:53;;;;;;;6.57;6.07;;;;;;;;;;4950672;28;20164;-74
2022/11/20 13:33:29;;;;;;;6.65;6.25;;;;;;;;;;4947427;28;20357;-73
2022/11/20 13:35:59;;;;;;;6.93;6.43;;;;;;;;;;4949076;28;20094;-73
2022/11/20 13:38:25;;;;;;;6.68;6.28;;;;;;;;;;4937402;28;20039;-72
2022/11/20 13:40:55;;;;;;;6.40;5.90;;;;;;;;;;4939061;28;20055;-72
2022/11/20 13:43:26;;;;;;;6.43;6.03;;;;;;;;;;4947596;28;20404;-72
2022/11/20 13:46:24;;;;;;;6.53;6.13;;;;;;;;;;4952930;28;20047;-72
2022/11/20 13:48:51;;;;;;;6.18;5.78;;;;;;;;;;4948010;28;20526;-72
2022/11/20 13:51:22;;;;;;;6.35;5.95;;;;;;;;;;4943819;28;20028;-73
2022/11/20 13:54:06;;;;;;;6.40;6.10;;;;;;;;;;4968237;28;20394;-72
2022/11/20 13:56:38;;;;;;;6.38;5.97;;;;;;;;;;4968369;28;20053;-72
2022/11/20 13:59:28;;;;;;;6.97;5.97;;;;;;;;;;4972946;28;20042;-73
2022/11/20 14:01:54;;;;;;;5.95;5.65;;;;;;;;;;4970814;28;20042;-72
2022/11/20 14:04:37;;;;;;;6.57;6.10;;;;;;;;;;4974224;28;20077;-73
2022/11/20 14:07:06;;;;;;;6.57;6.13;;;;;;;;;;4969308;28;20400;-73
2022/11/20 14:09:34;;;;;;;6.38;5.95;;;;;;;;;;4967610;28;20043;-73
2022/11/20 14:12:00;;;;;;;6.63;6.22;;;;;;;;;;4976923;28;20409;-73
2022/11/20 14:14:30;;;;;;;6.10;5.78;;;;;;;;;;4967529;28;20122;-72
2022/11/20 14:17:18;;;;;;;6.38;5.97;;;;;;;;;;4970886;28;20114;-72
2022/11/20 14:19:46;;;;;;;5.80;5.50;;;;;;;;;;4971606;28;20031;-72
2022/11/20 14:22:26;;;;;;;6.57;6.07;;;;;;;;;;4976388;28;20037;-72
2022/11/20 14:25:11;;;;;;;7.30;6.30;;;;;;;;;;4973026;28;20045;-72
2022/11/20 14:27:40;;;;;;;6.13;5.80;;;;;;;;;;4966665;28;20059;-73
2022/11/20 14:30:13;;;;;;;6.40;5.90;;;;;;;;;;4979737;28;20490;-72
2022/11/20 14:32:40;;;;;;;6.88;6.40;;;;;;;;;;4973161;28;20042;-73
2022/11/20 14:35:18;;;;;;;6.85;6.25;;;;;;;;;;4975263;28;20041;-72
2022/11/20 14:37:45;;;;;;;6.35;5.95;;;;;;;;;;4973207;28;20490;-73
2022/11/20 14:40:36;;;;;;;7.00;6.50;;;;;;;;;;4976460;28;20413;-72
2022/11/20 14:43:15;;;;;;;6.63;6.20;;;;;;;;;;4974961;28;20065;-73
2022/11/20 14:45:41;;;;;;;6.82;6.35;;;;;;;;;;4967253;28;20101;-72
2022/11/20 14:48:10;;;;;;;6.82;6.43;;;;;;;;;;4965658;28;20042;-74
2022/11/20 14:50:37;;;;;;;;;;;;;;;;;;4981174;28;20054;-72
2022/11/20 14:53:03;;;;;;;6.95;6.45;;;;;;;;;;4966720;28;20270;-72
2022/11/20 14:55:37;;;;;;;6.80;6.40;;;;;;;;;;4969141;28;20502;-72
2022/11/20 14:58:23;;;;;;;6.93;6.43;;;;;;;;;;4969806;28;20066;-72
2022/11/20 15:00:58;;;;;;;7.05;6.47;;;;;;;;;;4982427;28;20103;-72
2022/11/20 15:03:31;;;;;;;7.40;6.80;;;;;;;;;;4963953;28;20482;-72
2022/11/20 15:05:56;;;;;;;7.43;6.82;;;;;;;;;;4979806;28;20514;-72
2022/11/20 15:08:22;;;;;;;7.30;6.80;;;;;;;;;;4975538;28;20092;-72
2022/11/20 15:10:50;;;;;;;7.72;7.07;;;;;;;;;;4974223;28;20035;-72
2022/11/20 15:13:34;;;;;;;6.38;5.88;;;;;;;;;;4957355;28;20039;-72
2022/11/20 15:16:01;;;;;;;7.22;6.63;;;;;;;;;;4967436;28;20026;-71